Monterrey, Mexico

6:46 PM CDT on September 16, 2014 (GMT -0500)
PrepaUDEM Fundadores | Change Station
CLOSE
Current Station
Personal Weather Station
Location: Escobedo, NUEVO LEON
Elevation: 1630 ft
Nearby Weather Stations

Elev 1630 ft 25.77 °N, 100.30 °W | Updated 3 minutes ago

Mostly Cloudy
Mostly Cloudy
83.2 °F
Feels Like 88 °F
N
5.0
Wind Variable Wind from SE
Gusts 5.0 mph

Today
High -- | Low -- °F
--% Chance of Precip.
Yesterday
High -- | Low -- °F
Precip. -- in
7:27 AM 7:44 PM
Last Quarter, 41% visible
Pressure 29.95 in
Visibility 12.0 miles
Clouds Mostly Cloudy 4500 ft
Mostly Cloudy 10000 ft
Mostly Cloudy 25000 ft
Heat Index 88 °F
Dew Point 72 °F
Humidity 68%
Rainfall 0.03 in
Snow Depth Not available.
UV 1 out of 12
Pollen Not available.
Air Quality Not available.
Flu Activity Not available.
METAR MMMY 162250Z 11005KT 12SM BKN045TCU BKN100 BKN250 28/21 A2995 RMK 8/272

More Conditions Fewer Conditions

Pressure 29.95 in
Visibility 12.0 miles
Clouds Mostly Cloudy 4500 ft
Mostly Cloudy 10000 ft
Mostly Cloudy 25000 ft
Heat Index 88 °F
Dew Point 72 °F
Humidity 68%
Rainfall 0.03 in
Snow Depth Not available.
UV 1 out of 12
Pollen Not available.
Air Quality Not available.
Flu Activity Not available.
METAR MMMY 162250Z 11005KT 12SM BKN045TCU BKN100 BKN250 28/21 A2995 RMK 8/272

More Conditions Fewer Conditions

10-Day Weather Forecast

Almanac

Astronomy

Sep. 16, 2014 Rise Set
Actual Time 7:27 AM CDT 7:44 PM CDT
Civil Twilight 7:04 AM CDT 8:07 PM CDT
Nautical Twilight 6:37 AM CDT 8:33 PM CDT
Astronomical Twilight 6:10 AM CDT 9:01 PM CDT
Moon 1:03 AM CDT 2:44 PM CDT
Length of Visible Light 13h 02m
Length of Day
12h 16m
Tomorrow will be 1m 30s shorter.
Last Quarter, 41% of the Moon is Illuminated
Today
Last Quarter
Sep 24
New
Oct 1
First Quarter
Oct 8
Full
Oct 15
Last Quarter

Today's Extremes

Country Highs Country Lows

Community

WunderPhotos

Upload Photos

1,753,917 photos uploaded!

Nearby

Snow Depth

Not available.

Earthquake Activity

City Distance Mag. Time & Date
No recent earthquake activity has been reported nearby.
Minimum magnitude displayed is 2.5.

Coastal Water Temperatures

Place Temperature
No Stations Reporting

Nearby Weather Stations